createdAt,value
2023-01-28T00:03:17.695Z,100776.31
2023-01-28T00:10:36.022Z,100770.03
2023-01-28T00:17:56.364Z,100765.88
2023-01-28T00:25:14.943Z,100769.31
2023-01-28T00:32:33.581Z,100779.31
2023-01-28T00:39:53.245Z,100771.66
2023-01-28T00:47:11.466Z,100759.81
2023-01-28T00:54:30.244Z,100748.03
2023-01-28T01:01:53.039Z,100752.88
2023-01-28T01:09:15.554Z,100746.16
2023-01-28T01:16:36.450Z,100762.16
2023-01-28T01:23:56.063Z,100772.50
2023-01-28T01:31:16.035Z,100782.22
2023-01-28T01:38:34.352Z,100790.91
2023-01-28T01:45:56.609Z,100795.81
2023-01-28T01:53:17.779Z,100798.69
2023-01-28T02:00:36.167Z,100800.75
2023-01-28T02:08:17.588Z,100804.69
2023-01-28T02:15:36.125Z,100799.31
2023-01-28T02:23:15.864Z,100801.75
2023-01-28T02:30:39.348Z,100803.19
2023-01-28T02:38:02.017Z,100819.69
2023-01-28T02:45:22.872Z,100817.72
2023-01-28T02:53:13.423Z,100816.78
2023-01-28T03:00:37.939Z,100814.22
2023-01-28T03:07:58.080Z,100812.03
2023-01-28T03:15:36.390Z,100816.03
2023-01-28T03:23:15.298Z,100825.63
2023-01-28T03:30:57.297Z,100822.34
2023-01-28T03:38:34.239Z,100810.44
2023-01-28T03:45:53.025Z,100822.78
2023-01-28T03:53:16.821Z,100822.53
2023-01-28T04:00:45.421Z,100828.34
2023-01-28T04:08:04.582Z,100822.53
2023-01-28T04:15:41.556Z,100837.53
2023-01-28T04:23:03.155Z,100834.72
2023-01-28T04:30:22.086Z,100842.38
2023-01-28T04:38:14.826Z,100851.91
2023-01-28T04:45:57.835Z,100849.38
2023-01-28T04:53:52.767Z,100860.94
2023-01-28T05:01:23.755Z,100865.19
2023-01-28T05:08:42.485Z,100870.44
2023-01-28T05:16:02.466Z,100867.63
2023-01-28T05:23:21.183Z,100878.75
2023-01-28T05:30:45.985Z,100887.06
2023-01-28T05:38:05.657Z,100886.09
2023-01-28T05:45:24.068Z,100890.91
2023-01-28T05:52:52.377Z,100892.88
2023-01-28T06:00:18.447Z,100894.28
2023-01-28T06:07:37.564Z,100890.78
2023-01-28T06:14:57.949Z,100903.16
2023-01-28T06:22:36.041Z,100914.72
2023-01-28T06:29:54.315Z,100913.41
2023-01-28T06:37:14.211Z,100920.28
2023-01-28T06:44:33.951Z,100922.94
2023-01-28T06:51:52.752Z,100935.56
2023-01-28T06:59:11.178Z,100944.22
2023-01-28T07:06:30.958Z,100954.84
2023-01-28T07:13:49.178Z,100963.97
2023-01-28T07:21:07.567Z,100966.50
2023-01-28T07:28:27.179Z,100979.41
2023-01-28T07:35:45.439Z,100976.06
2023-01-28T07:43:03.727Z,100975.72
2023-01-28T07:50:30.682Z,100976.84
2023-01-28T07:57:53.696Z,100975.16
2023-01-28T08:05:12.048Z,100985.78
2023-01-28T08:12:31.868Z,100992.69
2023-01-28T08:19:50.060Z,101001.78
2023-01-28T08:27:08.597Z,100997.44
2023-01-28T08:34:28.151Z,101001.47
2023-01-28T08:41:46.980Z,101003.19
2023-01-28T08:49:05.415Z,101002.59
2023-01-28T08:56:24.954Z,101004.13
2023-01-28T09:03:43.262Z,101007.25
2023-01-28T09:11:01.832Z,101003.38
2023-01-28T09:18:21.531Z,101010.38
2023-01-28T09:25:39.936Z,101016.91
2023-01-28T09:32:59.579Z,101023.16
2023-01-28T09:40:22.500Z,101020.44
2023-01-28T09:47:43.676Z,101026.81
2023-01-28T09:55:05.851Z,101032.50
2023-01-28T10:02:39.084Z,101036.88
2023-01-28T10:09:58.338Z,101027.81
2023-01-28T10:17:19.262Z,101033.31
2023-01-28T10:24:44.462Z,101033.97
2023-01-28T10:32:07.645Z,101035.25
2023-01-28T10:39:27.113Z,101032.31
2023-01-28T10:46:47.261Z,101036.63
2023-01-28T10:54:15.599Z,101037.09
2023-01-28T11:01:45.489Z,101047.53
2023-01-28T11:09:05.781Z,101045.91
2023-01-28T11:16:24.056Z,101050.63
2023-01-28T11:23:50.996Z,101039.81
2023-01-28T11:31:12.343Z,101037.47
2023-01-28T11:38:30.629Z,101038.66
2023-01-28T11:45:53.775Z,101047.66
2023-01-28T11:54:00.515Z,101050.94
2023-01-28T12:01:24.149Z,101048.91
2023-01-28T12:08:46.211Z,101043.31
2023-01-28T12:16:13.465Z,101033.19
2023-01-28T12:23:52.804Z,101037.91
2023-01-28T12:31:21.177Z,101033.75
2023-01-28T12:38:46.231Z,101030.00
2023-01-28T12:46:12.657Z,101014.31
2023-01-28T12:53:35.138Z,101043.69
2023-01-28T13:00:57.809Z,101031.69
2023-01-28T13:08:21.331Z,101048.81
2023-01-28T13:15:42.180Z,101042.72
2023-01-28T13:23:04.316Z,101044.25
2023-01-28T13:30:28.695Z,101044.81
2023-01-28T13:37:47.368Z,101039.09
2023-01-28T13:45:24.666Z,101061.34
2023-01-28T13:52:45.883Z,101062.25
2023-01-28T14:00:10.114Z,101058.94
2023-01-28T14:08:15.489Z,101057.16
2023-01-28T14:16:09.532Z,101074.41
2023-01-28T14:23:31.417Z,101079.44
2023-01-28T14:30:55.765Z,101087.34
2023-01-28T14:38:20.159Z,101084.00
2023-01-28T14:46:06.915Z,101081.97
2023-01-28T14:53:50.215Z,101091.22
2023-01-28T15:01:23.143Z,101102.59
2023-01-28T15:08:44.252Z,101100.94
2023-01-28T15:16:03.782Z,101116.88
2023-01-28T15:23:29.717Z,101115.50
2023-01-28T15:30:48.733Z,101110.31
2023-01-28T15:38:07.982Z,101117.53
2023-01-28T15:45:29.977Z,101116.50
2023-01-28T15:52:50.750Z,101122.72
2023-01-28T16:00:26.671Z,101137.94
2023-01-28T16:07:47.861Z,101130.31
2023-01-28T16:15:19.671Z,101132.97
2023-01-28T16:22:39.944Z,101127.38
2023-01-28T16:29:59.622Z,101135.16
2023-01-28T16:37:18.345Z,101145.56
2023-01-28T16:44:37.047Z,101144.56
2023-01-28T16:51:58.079Z,101134.84
2023-01-28T16:59:17.684Z,101130.00
2023-01-28T17:06:37.412Z,101138.31
2023-01-28T17:13:58.388Z,101137.41
2023-01-28T17:21:17.100Z,101134.19
2023-01-28T17:28:41.948Z,101136.31
2023-01-28T17:36:14.248Z,101156.09
2023-01-28T17:43:37.858Z,101159.63
2023-01-28T17:51:03.962Z,101144.47
2023-01-28T17:58:33.062Z,101180.50
2023-01-28T18:06:08.120Z,101194.03
2023-01-28T18:13:32.170Z,101200.03
2023-01-28T18:20:58.458Z,101206.81
2023-01-28T18:28:17.057Z,101210.50
2023-01-28T18:35:42.802Z,101203.22
2023-01-28T18:43:01.060Z,101213.22
2023-01-28T18:50:19.601Z,101218.38
2023-01-28T18:57:39.322Z,101226.66
2023-01-28T19:04:57.617Z,101224.28
2023-01-28T19:12:16.048Z,101226.00
2023-01-28T19:19:41.359Z,101227.44
2023-01-28T19:27:00.202Z,101214.00
2023-01-28T19:34:18.634Z,101233.50
2023-01-28T19:41:38.527Z,101227.56
2023-01-28T19:48:57.002Z,101228.59
2023-01-28T19:56:18.666Z,101223.47
2023-01-28T20:03:38.878Z,101234.44
2023-01-28T20:11:04.363Z,101239.44
2023-01-28T20:18:22.684Z,101242.50
2023-01-28T20:25:42.512Z,101244.44
2023-01-28T20:33:00.762Z,101245.34
2023-01-28T20:40:20.279Z,101240.34
2023-01-28T20:47:40.309Z,101235.19
2023-01-28T20:54:58.826Z,101235.31
2023-01-28T21:02:17.241Z,101234.81
2023-01-28T21:09:36.812Z,101232.97
2023-01-28T21:16:54.982Z,101248.63
2023-01-28T21:24:13.583Z,101246.16
2023-01-28T21:31:33.403Z,101250.59
2023-01-28T21:38:52.991Z,101262.84
2023-01-28T21:46:11.186Z,101253.25
2023-01-28T21:53:31.163Z,101250.19
2023-01-28T22:00:49.441Z,101240.75
2023-01-28T22:08:07.678Z,101211.59
2023-01-28T22:15:27.695Z,101219.81
2023-01-28T22:22:45.839Z,101225.06
2023-01-28T22:30:04.141Z,101223.00
2023-01-28T22:37:23.877Z,101215.38
2023-01-28T22:44:42.153Z,101224.16
2023-01-28T22:52:00.402Z,101215.56
2023-01-28T22:59:20.005Z,101212.22
2023-01-28T23:06:38.600Z,101218.72
2023-01-28T23:14:16.576Z,101221.88
2023-01-28T23:21:54.722Z,101211.78
2023-01-28T23:29:13.151Z,101217.22
2023-01-28T23:36:31.914Z,101218.97
2023-01-28T23:43:51.994Z,101218.25
2023-01-28T23:51:10.269Z,101216.56
2023-01-28T23:58:42.744Z,101218.41
